Productos aeronáuticos

  • SIGMET
  • METAR / SPECI
  • TAF
  • AIREP
  • Aviso de aeródromo
  • Pronárea
  • Carta superficie

Mensajes METAR de la última hora

SUAA 251000Z 04010KT CAVOK 19/16 Q1017
SUDU 251000Z 04012KT 9999 SCT013 BKN070 19/16 Q1017
SULS 251000Z 02010KT CAVOK 17/14 Q1018
SUMU 251000Z 02008KT CAVOK 19/16 Q1017 NOSIG
SUSO 251000Z 06008G18KT CAVOK 20/16 Q1016

Mensajes METAR de la última hora - Internacionales


Argentina
SABE 250900z vrb02kt cavok 17/16 q1015
SAAR 251000Z 02012KT 9999 SCT025 BKN100 21/17 Q1012
SABE 251000Z VRB02KT CAVOK 18/16 Q1015
SACO 251000Z 02006KT CAVOK 15/14 Q1009
SAEZ 251000Z 02009KT CAVOK 20/17 Q1014
SAME 251000Z 05003KT CAVOK 08/05 Q1008
Bolivia
SLCP 251000Z 00000KT 9999 NSC 19/19 Q1018
SLLP 251000Z 02005KT 9999 NSC M01/M07 Q1038 A3066 628.4 FU HR63 NOSIG
Brasil
SBBR 251000Z 25002KT CAVOK 13/09 Q1025
SBFI 251000Z 09007KT CAVOK 15/14 Q1022
SBFL 251000Z 36003KT 9999 BKN013 SCT019 20/18 Q1026
SBGR 251000Z 00000KT 5000 BR BKN011 14/14 Q1028
SBPA 251000Z VRB02KT 5000 BR NSC 12/12 Q1024
SBRJ 251000Z 03004KT 9999 FEW017 SCT040 19/18 Q1025
SBSP 251000Z 09002KT 9999 FEW017 14/12 Q1028
Colombia
SKBO 251000Z 10004KT 99999 SCT020 SCT00 12/09 A3034
Chile
SCCI 251000Z 28005KT CAVOK M08/M09 Q1022 NOSIG
SCEL 251000Z 26003KT 140V290 5000 1500N BR SCT160 BKN200 07/06 Q1011 NOSIG
Ecuador
SEQM 251000Z 00000KT 8000 BCFG SCT005 10/09 Q1026 NOSIG RMK A3030
EEUU
KMIA 250953Z 14004KT 10SM FEW022 FEW040 SCT250 28/23 A3008 RMK AO2 SLP187 T02780233
KDCA 250952Z 00000KT 10SM BKN085 BKN250 22/16 A2999 RMK AO2 SLP157 ACC ALQDS T02220161
KIAD 250952Z 00000KT 10SM FEW075 SCT100 17/15 A3000 RMK AO2 SLP154 T01670150
KJFK 250951Z 01003KT 10SM FEW080 FEW110 FEW250 21/16 A2997 RMK AO2 SLP147 T02110161
KLGA 250951Z 32003KT 10SM FEW250 22/16 A2995 RMK AO2 SLP142 T02170161
España
LEBL 251000Z 15007KT 120V180 9999 FEW020 BKN028 26/22 Q1018 NOSIG
LEMD 251000Z 15005KT 130V200 CAVOK 28/07 Q1017 NOSIG
LEBL 250930Z 15007KT 110V190 9999 FEW025 BKN035 26/22 Q1018 NOSIG
LEMD 250930Z VRB02KT CAVOK 29/07 Q1017 NOSIG
Francia
LFPO 251000Z 26010KT 220V280 9999 BKN033 23/12 Q1016 NOSIG
LFPO 250930Z 28010KT 250V350 9999 SCT033 SCT040 23/12 Q1016 NOSIG
Inglaterra
EGLL 250950Z AUTO 25014KT 9999 OVC018 18/13 Q1013
EGLL 250920Z AUTO 23013KT 9999 OVC019 18/13 Q1013 NOSIG
Panamá
MPTO 251000Z 00000KT 9999 FEW018CB 24/24 Q1011 NOSIG
Paraguay
SGAS 251000Z 06007KT CAVOK 19/15 Q1017
Venezuela
SVMI 251000Z 14003KT 9999 SCT016 27/18 Q1011

* Datos extraidos del Text DataServer de la NOAA (NOAA TEXT DATA SERVER)

Instituto Uruguayo de Meteorología

Dr. Javier Barrios Amorín 1488 - CP 11200
Mesa Central (598) 1895

Montevideo - Uruguay